Time;durP1;ratioP1;P1;durP2;ratioP2;P2;SDS_P1;SDS_P2;PMS_P1;PMS_P2;Temp;Humidity;BMP_temperature;BMP_pressure;BME280_temperature;BME280_humidity;BME280_pressure;Samples;Min_cycle;Max_cycle;Signal;HPM_P1;HPM_P2
2022/04/11 00:02:04;;;;;;;5.30;1.05;;;;;;;;;;4956946;29;20043;-70
2022/04/11 00:04:30;;;;;;;6.43;0.77;;;;;;;;;;4954210;29;20015;-70
2022/04/11 00:06:57;;;;;;;1.83;0.70;;;;;;;;;;4953829;29;20030;-70
2022/04/11 00:09:23;;;;;;;5.18;1.15;;;;;;;;;;4955089;29;20023;-70
2022/04/11 00:11:50;;;;;;;5.53;0.68;;;;;;;;;;4956084;29;20510;-70
2022/04/11 00:14:16;;;;;;;5.93;0.80;;;;;;;;;;4954130;29;20031;-70
2022/04/11 00:16:42;;;;;;;3.22;0.90;;;;;;;;;;4953617;29;20081;-70
2022/04/11 00:19:09;;;;;;;2.80;1.08;;;;;;;;;;4953632;29;20015;-70
2022/04/11 00:21:35;;;;;;;2.55;0.70;;;;;;;;;;4953841;29;20026;-70
2022/04/11 00:24:02;;;;;;;4.25;0.85;;;;;;;;;;4956294;29;20142;-70
2022/04/11 00:26:28;;;;;;;2.90;1.05;;;;;;;;;;4954081;29;20070;-70
2022/04/11 00:28:55;;;;;;;6.18;0.98;;;;;;;;;;4940107;29;20131;-70
2022/04/11 00:31:21;;;;;;;6.75;1.10;;;;;;;;;;4953554;29;20410;-70
2022/04/11 00:33:47;;;;;;;7.75;1.30;;;;;;;;;;4953562;29;20045;-71
2022/04/11 00:36:13;;;;;;;4.70;1.00;;;;;;;;;;4955773;29;20051;-70
2022/04/11 00:38:40;;;;;;;10.93;1.30;;;;;;;;;;4953936;29;20085;-70
2022/04/11 00:41:06;;;;;;;6.50;1.00;;;;;;;;;;4953635;29;20035;-70
2022/04/11 00:43:33;;;;;;;7.97;1.08;;;;;;;;;;4953262;29;20027;-70
2022/04/11 00:46:00;;;;;;;6.13;1.10;;;;;;;;;;4953316;29;20042;-70
2022/04/11 00:48:26;;;;;;;5.40;1.20;;;;;;;;;;4953801;29;20538;-70
2022/04/11 00:50:55;;;;;;;2.45;1.02;;;;;;;;;;4955973;29;20077;-70
2022/04/11 00:53:21;;;;;;;5.55;1.30;;;;;;;;;;4954488;29;20506;-70
2022/04/11 00:55:48;;;;;;;5.63;1.20;;;;;;;;;;4952980;29;20046;-70
2022/04/11 00:58:14;;;;;;;6.97;1.38;;;;;;;;;;4952808;29;20028;-70
2022/04/11 01:00:41;;;;;;;5.60;1.27;;;;;;;;;;4948855;28;20027;-70
2022/04/11 01:03:07;;;;;;;1.98;0.80;;;;;;;;;;4940492;29;20023;-70
2022/04/11 01:05:34;;;;;;;6.90;1.23;;;;;;;;;;4953436;29;20029;-70
2022/04/11 01:08:07;;;;;;;3.58;1.08;;;;;;;;;;4952303;29;20034;-70
2022/04/11 01:10:34;;;;;;;4.28;1.00;;;;;;;;;;4939533;29;20033;-70
2022/04/11 01:13:01;;;;;;;7.72;1.42;;;;;;;;;;4952822;29;20023;-70
2022/04/11 01:15:27;;;;;;;6.03;1.45;;;;;;;;;;4946735;29;20032;-70
2022/04/11 01:17:54;;;;;;;10.07;2.00;;;;;;;;;;4955951;29;20025;-70
2022/04/11 01:20:20;;;;;;;13.07;1.63;;;;;;;;;;4953339;29;20400;-70
2022/04/11 01:22:47;;;;;;;5.47;1.65;;;;;;;;;;4952106;29;20027;-70
2022/04/11 01:25:14;;;;;;;4.50;1.30;;;;;;;;;;4952520;29;20027;-70
2022/04/11 01:27:41;;;;;;;5.80;1.40;;;;;;;;;;4952302;29;20054;-70
2022/04/11 01:30:09;;;;;;;4.82;1.45;;;;;;;;;;4940275;29;20066;-70
2022/04/11 01:32:35;;;;;;;4.38;1.45;;;;;;;;;;4953144;29;20030;-70
2022/04/11 01:35:02;;;;;;;3.92;1.33;;;;;;;;;;4952400;29;20026;-70
2022/04/11 01:37:28;;;;;;;7.88;1.70;;;;;;;;;;4951894;29;20070;-70
2022/04/11 01:39:55;;;;;;;3.08;1.35;;;;;;;;;;4952290;29;20078;-70
2022/04/11 01:42:21;;;;;;;2.85;1.38;;;;;;;;;;4953837;29;20027;-70
2022/04/11 01:44:47;;;;;;;6.80;1.52;;;;;;;;;;4954055;29;20035;-70
2022/04/11 01:47:14;;;;;;;2.60;1.38;;;;;;;;;;4952720;29;20061;-70
2022/04/11 01:49:40;;;;;;;3.47;1.88;;;;;;;;;;4952141;29;20030;-70
2022/04/11 01:52:07;;;;;;;2.85;1.42;;;;;;;;;;4951964;29;20041;-70
2022/04/11 01:54:33;;;;;;;4.68;1.20;;;;;;;;;;4951964;29;20026;-70
2022/04/11 01:56:59;;;;;;;7.53;1.20;;;;;;;;;;4953581;29;20045;-70
2022/04/11 01:59:26;;;;;;;6.90;1.30;;;;;;;;;;4952451;29;20027;-70
2022/04/11 02:01:52;;;;;;;3.80;1.10;;;;;;;;;;4951880;29;20489;-70
2022/04/11 02:04:18;;;;;;;10.18;1.63;;;;;;;;;;4951795;29;20031;-71
2022/04/11 02:06:45;;;;;;;7.50;2.05;;;;;;;;;;4951594;29;20028;-70
2022/04/11 02:09:11;;;;;;;8.40;1.52;;;;;;;;;;4954553;29;20027;-70
2022/04/11 02:11:37;;;;;;;14.52;2.03;;;;;;;;;;4952020;28;20047;-70
2022/04/11 02:14:04;;;;;;;10.60;1.73;;;;;;;;;;4951823;29;20023;-70
2022/04/11 02:16:30;;;;;;;7.80;1.63;;;;;;;;;;4951412;29;20035;-70
2022/04/11 02:18:56;;;;;;;13.73;2.00;;;;;;;;;;4938826;29;20477;-71
2022/04/11 02:21:23;;;;;;;13.50;2.10;;;;;;;;;;4948231;29;20497;-71
2022/04/11 02:23:49;;;;;;;14.18;3.78;;;;;;;;;;4954093;29;20033;-70
2022/04/11 02:26:15;;;;;;;17.70;2.70;;;;;;;;;;4952206;29;20035;-70
2022/04/11 02:28:41;;;;;;;17.42;1.95;;;;;;;;;;4951264;29;20045;-70
2022/04/11 02:31:08;;;;;;;7.22;1.75;;;;;;;;;;4937843;29;20039;-70
2022/04/11 02:33:34;;;;;;;11.77;2.28;;;;;;;;;;4951096;29;20019;-70
2022/04/11 02:36:01;;;;;;;9.23;2.00;;;;;;;;;;4954226;29;20031;-71
2022/04/11 02:38:27;;;;;;;10.77;1.60;;;;;;;;;;4951663;29;20057;-71
2022/04/11 02:40:53;;;;;;;9.32;2.13;;;;;;;;;;4951253;29;20033;-70
2022/04/11 02:43:20;;;;;;;9.63;1.70;;;;;;;;;;4950945;29;20032;-71
2022/04/11 02:45:46;;;;;;;8.70;1.90;;;;;;;;;;4951065;29;20039;-70
2022/04/11 02:48:12;;;;;;;11.55;3.20;;;;;;;;;;4953178;29;20023;-70
2022/04/11 02:50:39;;;;;;;6.57;1.80;;;;;;;;;;4952154;29;20031;-70
2022/04/11 02:53:05;;;;;;;13.73;2.03;;;;;;;;;;4953976;29;20034;-71
2022/04/11 02:55:31;;;;;;;7.25;1.95;;;;;;;;;;4950888;29;20034;-71
2022/04/11 02:57:58;;;;;;;7.25;1.80;;;;;;;;;;4951029;29;20027;-70
2022/04/11 03:00:24;;;;;;;10.25;1.90;;;;;;;;;;4951700;29;20034;-70
2022/04/11 03:02:52;;;;;;;9.13;2.03;;;;;;;;;;4952872;29;20035;-70
2022/04/11 03:05:18;;;;;;;6.95;1.88;;;;;;;;;;4954341;29;20404;-70
2022/04/11 03:07:44;;;;;;;9.48;2.08;;;;;;;;;;4950523;29;20374;-70
2022/04/11 03:10:11;;;;;;;9.30;1.80;;;;;;;;;;4950547;29;20383;-71
2022/04/11 03:12:37;;;;;;;5.95;2.08;;;;;;;;;;4950622;29;20019;-71
2022/04/11 03:15:04;;;;;;;8.00;1.70;;;;;;;;;;4953477;29;20381;-71
2022/04/11 03:17:30;;;;;;;8.05;2.03;;;;;;;;;;4950696;29;20045;-70
2022/04/11 03:19:57;;;;;;;6.53;1.75;;;;;;;;;;4950237;29;20011;-71
2022/04/11 03:22:23;;;;;;;8.75;1.95;;;;;;;;;;4950395;29;20407;-71
2022/04/11 03:24:49;;;;;;;9.07;1.73;;;;;;;;;;4949822;28;20020;-71
2022/04/11 03:27:16;;;;;;;6.53;1.80;;;;;;;;;;4952237;29;20034;-71
2022/04/11 03:29:42;;;;;;;11.20;2.15;;;;;;;;;;4951776;29;20027;-71
2022/04/11 03:32:08;;;;;;;7.53;1.80;;;;;;;;;;4952127;29;20492;-70
2022/04/11 03:34:35;;;;;;;8.05;1.95;;;;;;;;;;4950376;29;20015;-71
2022/04/11 03:37:01;;;;;;;4.68;1.60;;;;;;;;;;4950178;29;20047;-70
2022/04/11 03:39:28;;;;;;;12.73;2.05;;;;;;;;;;4950687;29;20027;-70
2022/04/11 03:41:54;;;;;;;13.75;2.17;;;;;;;;;;4953445;29;20041;-71
2022/04/11 03:44:21;;;;;;;7.35;1.60;;;;;;;;;;4950767;29;20050;-70
2022/04/11 03:46:47;;;;;;;6.85;1.88;;;;;;;;;;4949745;29;20483;-70
2022/04/11 03:49:13;;;;;;;7.80;2.03;;;;;;;;;;4950159;29;20032;-70
2022/04/11 03:51:40;;;;;;;12.27;2.65;;;;;;;;;;4945750;29;20518;-70
2022/04/11 03:54:06;;;;;;;8.13;2.13;;;;;;;;;;4938288;29;20024;-71
2022/04/11 03:56:32;;;;;;;8.27;1.95;;;;;;;;;;4950648;29;20047;-71
2022/04/11 03:58:59;;;;;;;7.95;1.70;;;;;;;;;;4950021;29;20021;-71
2022/04/11 04:01:25;;;;;;;8.77;1.52;;;;;;;;;;4949727;29;20023;-71
2022/04/11 04:03:51;;;;;;;3.90;1.65;;;;;;;;;;4949976;29;20028;-71
2022/04/11 04:06:18;;;;;;;6.57;1.85;;;;;;;;;;4951859;29;20419;-70
2022/04/11 04:08:44;;;;;;;11.00;1.65;;;;;;;;;;4951536;29;20035;-70
2022/04/11 04:11:11;;;;;;;6.43;1.83;;;;;;;;;;4952483;29;20038;-70
2022/04/11 04:13:37;;;;;;;10.30;1.80;;;;;;;;;;4950134;29;20022;-71
2022/04/11 04:16:05;;;;;;;6.63;1.50;;;;;;;;;;4949546;29;20496;-70
2022/04/11 04:18:31;;;;;;;3.92;1.63;;;;;;;;;;4950073;29;20024;-71
2022/04/11 04:20:57;;;;;;;9.73;1.70;;;;;;;;;;4941394;29;20029;-71
2022/04/11 04:23:24;;;;;;;8.57;1.50;;;;;;;;;;4952094;29;20035;-71
2022/04/11 04:25:50;;;;;;;6.85;1.70;;;;;;;;;;4949880;29;20023;-71
2022/04/11 04:28:17;;;;;;;7.47;1.65;;;;;;;;;;4949635;29;20098;-70
2022/04/11 04:30:45;;;;;;;10.10;1.45;;;;;;;;;;4949761;29;20030;-71
2022/04/11 04:33:12;;;;;;;5.78;1.52;;;;;;;;;;4952602;29;20023;-71
2022/04/11 04:35:39;;;;;;;8.80;1.67;;;;;;;;;;4952495;28;20039;-70
2022/04/11 04:38:05;;;;;;;7.25;1.70;;;;;;;;;;4956254;29;20042;-71
2022/04/11 04:40:32;;;;;;;8.85;1.60;;;;;;;;;;4953140;29;20395;-71
2022/04/11 04:42:58;;;;;;;7.55;1.60;;;;;;;;;;4953287;29;20023;-70
2022/04/11 04:45:24;;;;;;;7.97;1.70;;;;;;;;;;4953842;29;20085;-71
2022/04/11 04:47:51;;;;;;;8.13;1.25;;;;;;;;;;4955369;29;20030;-71
2022/04/11 04:50:17;;;;;;;8.65;1.58;;;;;;;;;;4953536;29;20031;-70
2022/04/11 04:52:43;;;;;;;8.48;1.88;;;;;;;;;;4952884;29;20023;-71
2022/04/11 04:55:10;;;;;;;7.07;1.48;;;;;;;;;;4953198;29;20024;-71
2022/04/11 04:57:36;;;;;;;12.18;1.70;;;;;;;;;;4953138;29;20051;-71
2022/04/11 05:00:04;;;;;;;5.70;1.77;;;;;;;;;;4955510;29;20480;-70
2022/04/11 05:02:36;;;;;;;6.05;1.73;;;;;;;;;;4953816;29;20035;-71
2022/04/11 05:05:04;;;;;;;7.10;1.92;;;;;;;;;;4952842;29;20023;-70
2022/04/11 05:07:30;;;;;;;4.30;1.42;;;;;;;;;;4952948;29;20022;-70
2022/04/11 05:09:56;;;;;;;4.00;1.30;;;;;;;;;;4952664;29;20476;-71
2022/04/11 05:12:23;;;;;;;5.57;1.65;;;;;;;;;;4954115;29;20095;-71
2022/04/11 05:14:49;;;;;;;6.47;1.48;;;;;;;;;;4954314;29;20551;-70
2022/04/11 05:17:15;;;;;;;6.88;1.60;;;;;;;;;;4952926;29;20047;-71
2022/04/11 05:19:42;;;;;;;11.27;1.75;;;;;;;;;;4952436;29;20019;-70
2022/04/11 05:22:08;;;;;;;10.68;1.90;;;;;;;;;;4939498;29;20033;-71
2022/04/11 05:24:34;;;;;;;9.15;1.70;;;;;;;;;;4952473;29;20404;-71
2022/04/11 05:27:01;;;;;;;8.13;2.05;;;;;;;;;;4944107;29;20441;-70
2022/04/11 05:29:27;;;;;;;7.10;1.58;;;;;;;;;;4959702;28;20035;-70
2022/04/11 05:31:53;;;;;;;8.32;1.92;;;;;;;;;;4955406;28;20037;-71
2022/04/11 05:34:20;;;;;;;6.93;1.85;;;;;;;;;;4965353;28;20023;-71
2022/04/11 05:36:47;;;;;;;8.68;1.77;;;;;;;;;;4951950;29;20051;-71
2022/04/11 05:39:14;;;;;;;5.00;1.88;;;;;;;;;;4964672;28;20456;-71
2022/04/11 05:41:40;;;;;;;3.33;1.67;;;;;;;;;;4959010;28;20033;-70
2022/04/11 05:44:06;;;;;;;7.15;1.70;;;;;;;;;;4956238;28;20411;-71
2022/04/11 05:46:33;;;;;;;9.18;2.05;;;;;;;;;;4962562;28;20019;-71
2022/04/11 05:48:59;;;;;;;4.60;1.70;;;;;;;;;;4951930;29;20065;-71
2022/04/11 05:51:26;;;;;;;9.38;1.90;;;;;;;;;;4965929;28;20396;-71
2022/04/11 05:53:52;;;;;;;7.65;1.75;;;;;;;;;;4957174;28;20473;-71
2022/04/11 05:56:19;;;;;;;8.60;1.75;;;;;;;;;;4956247;28;20055;-71
2022/04/11 05:58:45;;;;;;;16.95;2.30;;;;;;;;;;4953893;28;20031;-71
2022/04/11 06:01:11;;;;;;;9.85;1.95;;;;;;;;;;4966159;28;20023;-71
2022/04/11 06:03:38;;;;;;;5.80;2.17;;;;;;;;;;4938973;28;20050;-71
2022/04/11 06:06:08;;;;;;;10.77;1.70;;;;;;;;;;4955135;28;20035;-71
2022/04/11 06:08:34;;;;;;;5.55;1.63;;;;;;;;;;4948985;28;20468;-71
2022/04/11 06:11:00;;;;;;;5.55;1.98;;;;;;;;;;4955074;28;20030;-71
2022/04/11 06:13:27;;;;;;;10.38;1.90;;;;;;;;;;4959676;28;20138;-70
2022/04/11 06:15:55;;;;;;;9.23;1.80;;;;;;;;;;4951110;29;20031;-70
2022/04/11 06:18:22;;;;;;;6.30;2.28;;;;;;;;;;4964958;28;20491;-71
2022/04/11 06:20:49;;;;;;;8.15;2.03;;;;;;;;;;4956244;28;20031;-70
2022/04/11 06:23:16;;;;;;;11.13;2.22;;;;;;;;;;4954112;29;20057;-71
2022/04/11 06:25:42;;;;;;;16.15;2.40;;;;;;;;;;4951424;28;20023;-70
2022/04/11 06:28:08;;;;;;;9.45;1.88;;;;;;;;;;4949740;29;20054;-71
2022/04/11 06:30:35;;;;;;;7.00;1.92;;;;;;;;;;4950601;29;20511;-71
2022/04/11 06:33:01;;;;;;;17.02;2.13;;;;;;;;;;4951695;29;20015;-70
2022/04/11 06:35:27;;;;;;;12.25;2.15;;;;;;;;;;4951868;29;20040;-71
2022/04/11 06:37:54;;;;;;;9.70;1.70;;;;;;;;;;4950785;29;20027;-71
2022/04/11 06:40:20;;;;;;;10.40;1.67;;;;;;;;;;4950585;29;20023;-71
2022/04/11 06:42:46;;;;;;;5.82;1.67;;;;;;;;;;4951321;29;20019;-71
2022/04/11 06:45:14;;;;;;;7.95;2.08;;;;;;;;;;4952688;29;20463;-69
2022/04/11 06:47:42;;;;;;;9.88;2.15;;;;;;;;;;4952832;29;20031;-71
2022/04/11 06:50:08;;;;;;;8.23;2.10;;;;;;;;;;4937604;29;20030;-71
2022/04/11 06:52:34;;;;;;;10.25;2.00;;;;;;;;;;4950485;29;20484;-71
2022/04/11 06:55:01;;;;;;;8.38;2.00;;;;;;;;;;4950416;29;20078;-71
2022/04/11 06:57:27;;;;;;;12.57;2.42;;;;;;;;;;4949940;29;20031;-71
2022/04/11 06:59:54;;;;;;;11.65;3.10;;;;;;;;;;4952175;29;20139;-71
2022/04/11 07:02:21;;;;;;;6.80;1.85;;;;;;;;;;4950194;29;20519;-71
2022/04/11 07:04:47;;;;;;;7.25;1.67;;;;;;;;;;4935679;29;20374;-70
2022/04/11 07:07:14;;;;;;;7.03;1.95;;;;;;;;;;4949997;29;20027;-71
2022/04/11 07:09:40;;;;;;;7.40;1.80;;;;;;;;;;4950000;29;20500;-70
2022/04/11 07:12:07;;;;;;;8.93;2.20;;;;;;;;;;4951082;29;20035;-71
2022/04/11 07:14:33;;;;;;;5.05;1.38;;;;;;;;;;4952012;29;20484;-70
2022/04/11 07:16:59;;;;;;;6.20;1.92;;;;;;;;;;4948956;29;20090;-70
2022/04/11 07:19:26;;;;;;;6.57;1.70;;;;;;;;;;4948231;29;20073;-70
2022/04/11 07:21:52;;;;;;;5.45;2.00;;;;;;;;;;4951669;29;20507;-70
2022/04/11 07:24:18;;;;;;;4.47;1.90;;;;;;;;;;4950594;29;20029;-71
2022/04/11 07:26:45;;;;;;;4.32;1.48;;;;;;;;;;4950720;29;20091;-71
2022/04/11 07:29:11;;;;;;;6.35;1.77;;;;;;;;;;4951610;29;20047;-71
2022/04/11 07:31:37;;;;;;;11.90;1.85;;;;;;;;;;4948949;29;20396;-71
2022/04/11 07:34:04;;;;;;;7.00;1.85;;;;;;;;;;4949403;29;20023;-70
2022/04/11 07:36:30;;;;;;;7.25;2.10;;;;;;;;;;4949120;29;20065;-71
2022/04/11 07:38:57;;;;;;;9.90;1.88;;;;;;;;;;4950569;28;20391;-69
2022/04/11 07:41:24;;;;;;;5.80;1.40;;;;;;;;;;4949189;29;20042;-70
2022/04/11 07:43:51;;;;;;;7.05;2.15;;;;;;;;;;4950619;29;20412;-70
2022/04/11 07:46:17;;;;;;;5.93;1.70;;;;;;;;;;4948299;29;20026;-70
2022/04/11 07:48:43;;;;;;;5.03;2.00;;;;;;;;;;4950102;28;20027;-71
2022/04/11 07:51:11;;;;;;;5.68;1.65;;;;;;;;;;4951155;29;20029;-71
2022/04/11 07:53:37;;;;;;;7.80;1.80;;;;;;;;;;4948157;28;20023;-69
2022/04/11 07:56:03;;;;;;;8.02;1.80;;;;;;;;;;4950185;29;20039;-70
2022/04/11 07:58:30;;;;;;;11.10;1.80;;;;;;;;;;4948830;29;20023;-69
2022/04/11 08:00:56;;;;;;;8.63;1.85;;;;;;;;;;4948873;29;20407;-69
2022/04/11 08:03:22;;;;;;;7.82;1.70;;;;;;;;;;4949127;29;20027;-70
2022/04/11 08:05:49;;;;;;;15.30;2.17;;;;;;;;;;4950225;29;20039;-70
2022/04/11 08:08:15;;;;;;;9.52;1.90;;;;;;;;;;4948857;28;20443;-69
2022/04/11 08:10:42;;;;;;;8.63;1.63;;;;;;;;;;4947343;28;20027;-69
2022/04/11 08:13:08;;;;;;;6.53;1.60;;;;;;;;;;4945472;29;20019;-67
2022/04/11 08:15:34;;;;;;;4.32;1.40;;;;;;;;;;4951086;28;20031;-67
2022/04/11 08:18:01;;;;;;;4.45;1.40;;;;;;;;;;4953100;28;20039;-67
2022/04/11 08:20:28;;;;;;;4.53;1.42;;;;;;;;;;4944305;29;20027;-67
2022/04/11 08:22:54;;;;;;;10.93;1.83;;;;;;;;;;4956028;28;20033;-68
2022/04/11 08:25:21;;;;;;;8.77;1.75;;;;;;;;;;4946175;28;20050;-68
2022/04/11 08:27:47;;;;;;;10.48;1.90;;;;;;;;;;4946086;29;20040;-68
2022/04/11 08:30:14;;;;;;;15.02;1.98;;;;;;;;;;4952759;29;20030;-68
2022/04/11 08:32:41;;;;;;;9.90;1.83;;;;;;;;;;4949975;29;20034;-68
2022/04/11 08:35:08;;;;;;;9.13;1.83;;;;;;;;;;4937356;29;20035;-68
2022/04/11 08:37:40;;;;;;;8.35;2.10;;;;;;;;;;4950649;29;20065;-69
2022/04/11 08:40:16;;;;;;;6.43;1.77;;;;;;;;;;4951767;29;20038;-68
2022/04/11 08:42:44;;;;;;;5.22;1.75;;;;;;;;;;4949845;29;20030;-68
2022/04/11 08:45:13;;;;;;;16.48;3.50;;;;;;;;;;4952908;29;20077;-68
2022/04/11 08:47:40;;;;;;;9.38;1.70;;;;;;;;;;4951009;29;20031;-68
2022/04/11 08:50:06;;;;;;;8.35;1.65;;;;;;;;;;4953539;29;20078;-68
2022/04/11 08:52:34;;;;;;;9.15;1.45;;;;;;;;;;4952364;29;20542;-68
2022/04/11 08:55:01;;;;;;;5.20;1.55;;;;;;;;;;4951266;29;20038;-68
2022/04/11 08:57:28;;;;;;;8.75;1.60;;;;;;;;;;4951990;29;20042;-68
2022/04/11 08:59:55;;;;;;;6.28;1.50;;;;;;;;;;4952033;29;20023;-68
2022/04/11 09:02:31;;;;;;;8.23;1.90;;;;;;;;;;4953325;29;20480;-68
2022/04/11 09:04:57;;;;;;;5.18;1.60;;;;;;;;;;4951202;29;20035;-69
2022/04/11 09:07:24;;;;;;;8.60;1.67;;;;;;;;;;4952688;29;20778;-68
2022/04/11 09:09:51;;;;;;;7.88;1.65;;;;;;;;;;4951041;29;20051;-68
2022/04/11 09:12:18;;;;;;;8.68;1.67;;;;;;;;;;4949649;29;20027;-68
2022/04/11 09:14:51;;;;;;;6.30;2.05;;;;;;;;;;4945365;29;20030;-68
2022/04/11 09:17:17;;;;;;;7.93;2.13;;;;;;;;;;4953612;29;20514;-68
2022/04/11 09:19:44;;;;;;;10.00;1.67;;;;;;;;;;4950405;29;20015;-68
2022/04/11 09:22:10;;;;;;;6.68;1.60;;;;;;;;;;4946719;29;20495;-68
2022/04/11 09:24:38;;;;;;;9.45;1.90;;;;;;;;;;4950345;29;20038;-68
2022/04/11 09:27:06;;;;;;;8.95;1.48;;;;;;;;;;4953188;29;20029;-68
2022/04/11 09:29:33;;;;;;;8.40;1.40;;;;;;;;;;4953441;29;20503;-68
2022/04/11 09:32:06;;;;;;;9.35;1.60;;;;;;;;;;4953358;29;20511;-68
2022/04/11 09:34:32;;;;;;;10.30;1.60;;;;;;;;;;4951970;29;20408;-68
2022/04/11 09:37:02;;;;;;;6.10;1.23;;;;;;;;;;4953614;29;20035;-68
2022/04/11 09:39:33;;;;;;;5.88;1.50;;;;;;;;;;4952865;29;20523;-68
2022/04/11 09:41:59;;;;;;;8.20;1.40;;;;;;;;;;4944547;29;20027;-69
2022/04/11 09:44:26;;;;;;;5.95;1.15;;;;;;;;;;4952105;29;20028;-69
2022/04/11 09:46:53;;;;;;;9.50;1.40;;;;;;;;;;4947243;29;20052;-68
2022/04/11 09:49:20;;;;;;;4.95;1.10;;;;;;;;;;4948856;29;20398;-68
2022/04/11 09:52:05;;;;;;;9.20;2.17;;;;;;;;;;4949422;29;20031;-69
2022/04/11 09:54:31;;;;;;;8.50;1.40;;;;;;;;;;4948639;29;20098;-69
2022/04/11 09:56:58;;;;;;;9.73;2.03;;;;;;;;;;4949356;29;20039;-68
2022/04/11 09:59:25;;;;;;;8.77;1.70;;;;;;;;;;4947016;29;20034;-68
2022/04/11 10:01:52;;;;;;;5.82;1.65;;;;;;;;;;4949002;29;20031;-68
2022/04/11 10:04:22;;;;;;;6.45;1.30;;;;;;;;;;4950792;29;20488;-68
2022/04/11 10:06:49;;;;;;;13.35;1.48;;;;;;;;;;4946376;29;20439;-68
2022/04/11 10:09:15;;;;;;;6.78;1.48;;;;;;;;;;4950927;29;20027;-70
2022/04/11 10:11:43;;;;;;;10.93;2.00;;;;;;;;;;4952695;29;20027;-70
2022/04/11 10:14:12;;;;;;;8.10;1.58;;;;;;;;;;4952114;29;20515;-70
2022/04/11 10:16:43;;;;;;;10.48;1.80;;;;;;;;;;4945519;29;20035;-70
2022/04/11 10:19:10;;;;;;;10.55;1.67;;;;;;;;;;4950921;29;20041;-70
2022/04/11 10:21:40;;;;;;;8.65;1.80;;;;;;;;;;4952043;29;20030;-70
2022/04/11 10:24:25;;;;;;;7.50;1.93;;;;;;;;;;4952542;29;20530;-70
2022/04/11 10:26:53;;;;;;;6.53;1.50;;;;;;;;;;4952512;28;20637;-70
2022/04/11 10:29:38;;;;;;;10.98;1.90;;;;;;;;;;4952129;29;20506;-69
2022/04/11 10:32:14;;;;;;;8.27;1.30;;;;;;;;;;4951955;29;20035;-70
2022/04/11 10:34:45;;;;;;;4.28;1.20;;;;;;;;;;4952699;29;20062;-70
2022/04/11 10:37:11;;;;;;;8.50;1.80;;;;;;;;;;4952448;29;20400;-70
2022/04/11 10:39:39;;;;;;;7.45;1.60;;;;;;;;;;4952985;29;20281;-70
2022/04/11 10:42:06;;;;;;;15.43;2.22;;;;;;;;;;4952426;29;20558;-70
2022/04/11 10:44:32;;;;;;;12.75;1.95;;;;;;;;;;4953414;29;20077;-70
2022/04/11 10:47:14;;;;;;;8.48;1.90;;;;;;;;;;4952637;29;20023;-70
2022/04/11 10:49:53;;;;;;;8.50;2.25;;;;;;;;;;4952570;29;20054;-70
2022/04/11 10:52:31;;;;;;;8.88;1.60;;;;;;;;;;4952638;29;20063;-70
2022/04/11 10:55:04;;;;;;;7.95;1.92;;;;;;;;;;4952858;29;20042;-70
2022/04/11 10:58:00;;;;;;;11.73;2.00;;;;;;;;;;4952404;29;20037;-70
2022/04/11 11:00:27;;;;;;;7.45;1.63;;;;;;;;;;4923790;29;20035;-70
2022/04/11 11:02:54;;;;;;;8.13;1.70;;;;;;;;;;4953079;29;20086;-70
2022/04/11 11:05:24;;;;;;;9.60;1.90;;;;;;;;;;4953821;29;20042;-70
2022/04/11 11:08:12;;;;;;;10.35;1.90;;;;;;;;;;4953548;29;20123;-70
2022/04/11 11:10:42;;;;;;;7.80;1.65;;;;;;;;;;4953135;29;20072;-70
2022/04/11 11:13:28;;;;;;;11.93;2.10;;;;;;;;;;4953569;29;20019;-70
2022/04/11 11:15:55;;;;;;;20.35;6.10;;;;;;;;;;4952780;29;20050;-70
2022/04/11 11:18:21;;;;;;;8.27;2.08;;;;;;;;;;4936164;29;20034;-70
2022/04/11 11:20:57;;;;;;;13.77;2.88;;;;;;;;;;4953230;29;20404;-71
2022/04/11 11:23:31;;;;;;;11.35;2.55;;;;;;;;;;4952190;29;20538;-70
2022/04/11 11:26:11;;;;;;;7.82;1.73;;;;;;;;;;4953149;29;20484;-70
2022/04/11 11:28:40;;;;;;;6.60;1.60;;;;;;;;;;4952673;29;20066;-70
2022/04/11 11:31:07;;;;;;;9.98;2.13;;;;;;;;;;4952641;29;20054;-70
2022/04/11 11:33:33;;;;;;;10.93;2.10;;;;;;;;;;4953026;29;20031;-70
2022/04/11 11:36:02;;;;;;;14.82;1.90;;;;;;;;;;4953005;29;20035;-70
2022/04/11 11:38:29;;;;;;;5.80;1.65;;;;;;;;;;4953539;29;20484;-71
2022/04/11 11:40:58;;;;;;;13.35;4.85;;;;;;;;;;4953078;29;20057;-70
2022/04/11 11:43:25;;;;;;;9.05;2.33;;;;;;;;;;4952881;29;20027;-70
2022/04/11 11:45:52;;;;;;;11.55;2.45;;;;;;;;;;4937512;29;20436;-70
2022/04/11 11:48:20;;;;;;;6.93;1.90;;;;;;;;;;4957459;29;20023;-70
2022/04/11 11:50:50;;;;;;;14.23;2.15;;;;;;;;;;4957220;29;20046;-70
2022/04/11 11:53:17;;;;;;;11.95;2.90;;;;;;;;;;4957014;29;20041;-70
2022/04/11 11:55:53;;;;;;;11.88;2.17;;;;;;;;;;4956809;29;20049;-70
2022/04/11 11:58:19;;;;;;;12.60;2.63;;;;;;;;;;4956875;29;20504;-70
2022/04/11 12:00:47;;;;;;;21.30;3.60;;;;;;;;;;4956269;29;20031;-70
2022/04/11 12:05:59;;;;;;;10.80;2.10;;;;;;;;;;4952276;29;20089;-73
2022/04/11 12:08:30;;;;;;;8.65;1.88;;;;;;;;;;4950946;29;20403;-72
2022/04/11 12:10:58;;;;;;;12.15;2.00;;;;;;;;;;4954960;29;20472;-75
2022/04/11 12:13:25;;;;;;;8.00;1.95;;;;;;;;;;4954275;29;20057;-72
2022/04/11 12:15:52;;;;;;;13.70;2.83;;;;;;;;;;4937483;29;20031;-75
2022/04/11 12:18:19;;;;;;;8.70;2.40;;;;;;;;;;4955253;29;20377;-86
2022/04/11 12:20:47;;;;;;;11.93;4.88;;;;;;;;;;4955408;29;20034;-77
2022/04/11 12:23:14;;;;;;;9.48;1.70;;;;;;;;;;4955408;29;20046;-71
2022/04/11 12:25:51;;;;;;;9.52;1.60;;;;;;;;;;4954302;29;20078;-77
2022/04/11 12:28:18;;;;;;;11.15;2.00;;;;;;;;;;4954649;29;20051;-73
2022/04/11 12:30:46;;;;;;;6.28;2.03;;;;;;;;;;4953746;29;20031;-73
2022/04/11 12:33:29;;;;;;;5.70;1.88;;;;;;;;;;4954886;29;20493;-74
2022/04/11 12:36:08;;;;;;;11.20;2.10;;;;;;;;;;4954300;29;20388;-76
2022/04/11 12:38:41;;;;;;;10.57;1.90;;;;;;;;;;4954655;29;20306;-75
2022/04/11 12:41:09;;;;;;;13.65;2.33;;;;;;;;;;4955244;29;20078;-74
2022/04/11 12:43:55;;;;;;;13.27;2.00;;;;;;;;;;4954648;29;20019;-80
2022/04/11 12:46:24;;;;;;;15.68;1.85;;;;;;;;;;4954430;28;20516;-80
2022/04/11 12:48:55;;;;;;;8.18;1.88;;;;;;;;;;4954799;29;20027;-77
2022/04/11 12:51:22;;;;;;;9.70;2.15;;;;;;;;;;4954364;29;20027;-83
2022/04/11 12:53:48;;;;;;;10.63;1.95;;;;;;;;;;4955014;29;20042;-80
2022/04/11 12:56:14;;;;;;;15.07;2.10;;;;;;;;;;4954137;28;20522;-74
2022/04/11 12:58:41;;;;;;;8.23;2.10;;;;;;;;;;4954091;29;20027;-87
2022/04/11 13:01:07;;;;;;;12.45;2.05;;;;;;;;;;4954715;29;20035;-79
2022/04/11 13:03:34;;;;;;;12.90;2.00;;;;;;;;;;4954465;29;20027;-75
2022/04/11 13:06:02;;;;;;;13.05;2.20;;;;;;;;;;4954173;29;20034;-77
2022/04/11 13:08:30;;;;;;;16.23;2.47;;;;;;;;;;4949828;29;20045;-81
2022/04/11 13:10:58;;;;;;;9.70;2.00;;;;;;;;;;4954203;29;20031;-79
2022/04/11 13:13:26;;;;;;;10.73;1.95;;;;;;;;;;4954070;29;20027;-75
2022/04/11 13:18:37;;;;;;;5.50;1.50;;;;;;;;;;4943349;29;20058;-74
2022/04/11 13:21:04;;;;;;;14.77;2.10;;;;;;;;;;4952397;28;20039;-75
2022/04/11 13:23:30;;;;;;;8.05;1.90;;;;;;;;;;4953787;29;20106;-77
2022/04/11 13:25:56;;;;;;;12.00;2.53;;;;;;;;;;4953405;29;20027;-73
2022/04/11 13:28:24;;;;;;;12.18;2.10;;;;;;;;;;4953686;29;20047;-78
2022/04/11 13:30:50;;;;;;;6.38;1.45;;;;;;;;;;4934697;29;20516;-86
2022/04/11 13:33:17;;;;;;;10.85;2.28;;;;;;;;;;4936276;29;20043;-74
2022/04/11 13:35:43;;;;;;;10.27;2.72;;;;;;;;;;4953905;29;20031;-78
2022/04/11 13:38:09;;;;;;;10.02;1.67;;;;;;;;;;4954101;29;20051;-77
2022/04/11 13:40:36;;;;;;;14.85;1.60;;;;;;;;;;4953542;29;20015;-78
2022/04/11 13:43:02;;;;;;;11.75;1.98;;;;;;;;;;4953779;29;20034;-76
2022/04/11 13:45:28;;;;;;;7.57;1.75;;;;;;;;;;4953834;29;20081;-73
2022/04/11 13:47:55;;;;;;;15.32;1.88;;;;;;;;;;4953511;29;20027;-78
2022/04/11 13:50:21;;;;;;;10.45;2.10;;;;;;;;;;4954078;29;20038;-78
2022/04/11 13:52:48;;;;;;;11.52;1.95;;;;;;;;;;4953491;29;20019;-77
2022/04/11 13:55:14;;;;;;;13.52;2.30;;;;;;;;;;4953003;29;20045;-81
2022/04/11 13:57:40;;;;;;;5.65;1.98;;;;;;;;;;4952743;29;20041;-73
2022/04/11 14:00:07;;;;;;;9.73;2.22;;;;;;;;;;4953277;29;20023;-73
2022/04/11 14:02:35;;;;;;;13.88;2.25;;;;;;;;;;4953879;29;20045;-79
2022/04/11 14:05:01;;;;;;;14.10;3.17;;;;;;;;;;4953492;29;20034;-76
2022/04/11 14:07:27;;;;;;;10.25;2.50;;;;;;;;;;4952290;28;20035;-75
2022/04/11 14:09:54;;;;;;;11.65;1.92;;;;;;;;;;4952968;29;20031;-78
2022/04/11 14:12:20;;;;;;;7.80;2.17;;;;;;;;;;4953288;29;20031;-78
2022/04/11 14:14:46;;;;;;;8.93;2.30;;;;;;;;;;4953090;29;20085;-80
2022/04/11 14:17:13;;;;;;;10.77;2.20;;;;;;;;;;4953314;29;20089;-73
2022/04/11 14:19:40;;;;;;;11.73;1.90;;;;;;;;;;4953397;29;20053;-74
2022/04/11 14:22:06;;;;;;;12.30;2.42;;;;;;;;;;4952950;29;20029;-76
2022/04/11 14:24:32;;;;;;;10.35;1.80;;;;;;;;;;4935352;29;20027;-71
2022/04/11 14:26:59;;;;;;;12.27;2.20;;;;;;;;;;4952664;29;20089;-78
2022/04/11 14:29:25;;;;;;;4.65;1.50;;;;;;;;;;4951890;29;20043;-87
2022/04/11 14:31:52;;;;;;;7.97;2.20;;;;;;;;;;4949992;29;20042;-78
2022/04/11 14:34:18;;;;;;;15.45;1.85;;;;;;;;;;4950319;29;20037;-78
2022/04/11 14:36:44;;;;;;;10.52;3.20;;;;;;;;;;4949619;29;20038;-74
2022/04/11 14:39:11;;;;;;;11.40;2.50;;;;;;;;;;4952652;29;20037;-75
2022/04/11 14:41:38;;;;;;;11.85;1.98;;;;;;;;;;4953679;29;20519;-75
2022/04/11 14:44:04;;;;;;;10.45;2.00;;;;;;;;;;4948807;29;20031;-73
2022/04/11 14:46:32;;;;;;;8.82;1.85;;;;;;;;;;4949975;29;20023;-74